Celeste Hinkle, North Carolina
Current Conditions -  °F | °C
As of 11:35 AM on Saturday 22 Nov 2014 (Local Time) from KSVH Reporting Station
Clear Clear  
Wind Chill: 44°   Ceiling: Unl
Heat Index: 44°   Visibility: 10mi
Dew Point: 16°   Wind: 0mph
Humidity: 33%   Direction: NA
Pressure: 30.49"   Gusts: NA
Location:  35.8306°N, 80.9003°W
Report Text: KSVH 221635Z AUTO 00000KT 10SM CLR 07/M09 A3049 RMK AO2 T00651088
Loading
Personal Weather Stations






























Interactive Weather Map New forecast layout! Learn more

10-Day Weather Forecast

Advertisements
Track Severe Weather on mobile